createdAt,value
2018-02-20T00:01:43.742Z,65.30
2018-02-20T00:04:12.007Z,60.17
2018-02-20T00:06:40.260Z,59.57
2018-02-20T00:09:09.281Z,60.37
2018-02-20T00:11:37.573Z,58.03
2018-02-20T00:14:05.938Z,63.30
2018-02-20T00:16:34.207Z,63.87
2018-02-20T00:19:02.542Z,55.10
2018-02-20T00:21:30.808Z,62.13
2018-02-20T00:23:59.055Z,64.47
2018-02-20T00:26:27.415Z,60.10
2018-02-20T00:28:55.664Z,57.27
2018-02-20T00:31:23.972Z,52.10
2018-02-20T00:33:52.442Z,64.93
2018-02-20T00:36:20.926Z,63.97
2018-02-20T00:38:49.176Z,61.90
2018-02-20T00:41:18.198Z,57.80
2018-02-20T00:43:46.440Z,60.00
2018-02-20T00:46:14.710Z,53.33
2018-02-20T00:48:43.215Z,58.93
2018-02-20T00:51:11.475Z,55.87
2018-02-20T00:53:40.483Z,50.50
2018-02-20T00:56:08.731Z,54.13
2018-02-20T00:58:37.841Z,53.03
2018-02-20T01:01:06.087Z,56.27
2018-02-20T01:03:34.458Z,51.87
2018-02-20T01:06:03.523Z,55.53
2018-02-20T01:08:31.807Z,57.80
2018-02-20T01:11:00.097Z,57.83
2018-02-20T01:13:28.380Z,57.40
2018-02-20T01:15:56.607Z,56.60
2018-02-20T01:18:24.916Z,60.30
2018-02-20T01:20:53.174Z,56.73
2018-02-20T01:23:21.448Z,56.23
2018-02-20T01:25:49.713Z,62.67
2018-02-20T01:28:17.979Z,58.47
2018-02-20T01:30:46.230Z,55.93
2018-02-20T01:33:14.520Z,57.83
2018-02-20T01:35:42.754Z,62.90
2018-02-20T01:38:11.819Z,63.07
2018-02-20T01:40:40.094Z,56.00
2018-02-20T01:43:08.363Z,60.23
2018-02-20T01:45:36.636Z,58.67
2018-02-20T01:48:04.886Z,54.70
2018-02-20T01:50:33.151Z,58.87
2018-02-20T01:53:01.422Z,60.17
2018-02-20T01:55:29.675Z,61.70
2018-02-20T01:57:58.831Z,64.70
2018-02-20T02:00:27.108Z,66.03
2018-02-20T02:02:55.386Z,59.70
2018-02-20T02:05:23.735Z,62.37
2018-02-20T02:07:51.995Z,70.67
2018-02-20T02:10:20.259Z,64.80
2018-02-20T02:12:48.547Z,70.87
2018-02-20T02:15:16.846Z,68.97
2018-02-20T02:17:45.100Z,61.73
2018-02-20T02:20:13.440Z,65.10
2018-02-20T02:22:41.709Z,60.67
2018-02-20T02:25:10.188Z,65.20
2018-02-20T02:27:38.460Z,70.20
2018-02-20T02:30:07.509Z,67.53
2018-02-20T02:32:35.837Z,67.50
2018-02-20T02:35:04.080Z,75.20
2018-02-20T02:37:32.386Z,70.43
2018-02-20T02:40:00.660Z,75.77
2018-02-20T02:42:29.710Z,70.83
2018-02-20T02:44:58.031Z,70.33
2018-02-20T02:47:27.060Z,74.77
2018-02-20T02:49:55.333Z,73.60
2018-02-20T02:52:23.624Z,76.87
2018-02-20T02:54:51.935Z,77.17
2018-02-20T02:57:20.201Z,75.93
2018-02-20T02:59:48.456Z,70.50
2018-02-20T03:02:16.739Z,75.23
2018-02-20T03:04:45.016Z,72.07
2018-02-20T03:07:13.877Z,72.37
2018-02-20T03:09:42.255Z,75.87
2018-02-20T03:12:10.530Z,79.83
2018-02-20T03:14:38.814Z,81.13
2018-02-20T03:17:07.173Z,75.57
2018-02-20T03:19:35.461Z,77.50
2018-02-20T03:22:03.729Z,71.00
2018-02-20T03:24:32.043Z,76.03
2018-02-20T03:27:01.057Z,76.53
2018-02-20T03:29:30.096Z,79.20
2018-02-20T03:31:58.362Z,71.13
2018-02-20T03:34:26.637Z,70.33
2018-02-20T03:36:54.909Z,78.63
2018-02-20T03:39:23.204Z,70.40
2018-02-20T03:41:51.463Z,60.77
2018-02-20T03:44:19.744Z,74.33
2018-02-20T03:46:48.112Z,65.00
2018-02-20T03:49:17.273Z,76.90
2018-02-20T03:51:45.511Z,74.73
2018-02-20T03:54:13.821Z,81.00
2018-02-20T03:56:42.067Z,80.63
2018-02-20T03:59:10.332Z,88.27
2018-02-20T04:01:38.601Z,83.57
2018-02-20T04:04:06.931Z,80.67
2018-02-20T04:06:36.019Z,81.37
2018-02-20T04:09:05.046Z,77.17
2018-02-20T04:11:33.319Z,83.97
2018-02-20T04:14:01.567Z,84.37
2018-02-20T04:16:30.626Z,82.53
2018-02-20T04:18:58.888Z,73.40
2018-02-20T04:21:27.163Z,76.03
2018-02-20T04:23:55.435Z,74.47
2018-02-20T04:26:23.749Z,89.23
2018-02-20T04:28:51.971Z,71.10
2018-02-20T04:31:20.299Z,74.77
2018-02-20T04:33:48.882Z,77.93
2018-02-20T04:36:17.125Z,85.50
2018-02-20T04:38:45.396Z,84.30
2018-02-20T04:41:13.674Z,82.27
2018-02-20T04:43:41.919Z,84.90
2018-02-20T04:46:10.193Z,73.67
2018-02-20T04:48:38.449Z,72.70
2018-02-20T04:51:06.740Z,68.03
2018-02-20T04:53:35.000Z,63.93
2018-02-20T04:56:03.282Z,70.83
2018-02-20T04:58:31.564Z,73.30
2018-02-20T05:00:59.830Z,76.47
2018-02-20T05:03:28.111Z,78.17
2018-02-20T05:05:56.435Z,78.90
2018-02-20T05:08:24.670Z,87.25
2018-02-20T05:10:52.947Z,82.47
2018-02-20T05:13:21.295Z,85.60
2018-02-20T05:15:49.622Z,78.50
2018-02-20T05:18:17.903Z,77.13
2018-02-20T05:20:46.178Z,83.87
2018-02-20T05:23:14.451Z,89.60
2018-02-20T05:25:42.715Z,96.80
2018-02-20T05:28:11.018Z,90.50
2018-02-20T05:30:39.270Z,105.93
2018-02-20T05:33:07.581Z,99.43
2018-02-20T05:35:35.871Z,102.90
2018-02-20T05:38:04.151Z,89.07
2018-02-20T05:40:32.416Z,105.93
2018-02-20T05:43:01.456Z,97.80
2018-02-20T05:45:29.733Z,103.67
2018-02-20T05:47:58.390Z,95.73
2018-02-20T05:50:26.833Z,91.03
2018-02-20T05:52:55.081Z,87.80
2018-02-20T05:55:23.491Z,103.93
2018-02-20T05:57:51.890Z,98.93
2018-02-20T06:00:20.119Z,103.90
2018-02-20T06:02:48.502Z,108.00
2018-02-20T06:05:16.947Z,107.40
2018-02-20T06:07:45.195Z,104.00
2018-02-20T06:10:13.467Z,110.17
2018-02-20T06:12:41.938Z,96.27
2018-02-20T06:15:10.992Z,104.70
2018-02-20T06:17:40.177Z,105.67
2018-02-20T06:20:08.622Z,113.00
2018-02-20T06:22:36.972Z,109.47
2018-02-20T06:25:05.219Z,106.93
2018-02-20T06:27:33.504Z,112.30
2018-02-20T06:30:01.829Z,115.20
2018-02-20T06:32:30.080Z,113.17
2018-02-20T06:34:58.513Z,112.67
2018-02-20T06:37:26.812Z,115.33
2018-02-20T06:39:55.091Z,113.03
2018-02-20T06:42:24.202Z,108.03
2018-02-20T06:44:53.324Z,106.57
2018-02-20T06:47:21.599Z,114.07
2018-02-20T06:49:49.887Z,119.83
2018-02-20T06:52:18.163Z,119.90
2018-02-20T06:54:46.431Z,107.83
2018-02-20T06:57:14.707Z,124.10
2018-02-20T06:59:42.986Z,108.87
2018-02-20T07:02:11.280Z,111.07
2018-02-20T07:04:39.546Z,116.60
2018-02-20T07:07:07.839Z,111.80
2018-02-20T07:09:36.123Z,120.70
2018-02-20T07:12:04.492Z,119.00
2018-02-20T07:14:32.726Z,109.07
2018-02-20T07:17:01.022Z,104.83
2018-02-20T07:19:29.242Z,113.90
2018-02-20T07:21:58.331Z,120.17
2018-02-20T07:24:27.393Z,112.10
2018-02-20T07:26:55.707Z,108.60
2018-02-20T07:29:24.111Z,113.73
2018-02-20T07:31:52.416Z,115.27
2018-02-20T07:34:20.711Z,117.63
2018-02-20T07:36:48.992Z,121.90
2018-02-20T07:39:17.387Z,120.73
2018-02-20T07:41:46.511Z,112.80
2018-02-20T07:44:14.859Z,125.00
2018-02-20T07:46:43.899Z,112.73
2018-02-20T07:49:12.848Z,122.30
2018-02-20T07:51:41.895Z,120.37
2018-02-20T07:54:10.168Z,116.90
2018-02-20T07:56:38.433Z,116.43
2018-02-20T07:59:06.685Z,114.90
2018-02-20T08:01:34.969Z,111.77
2018-02-20T08:04:03.255Z,120.00
2018-02-20T08:06:31.631Z,106.20
2018-02-20T08:08:59.892Z,112.30
2018-02-20T08:11:28.164Z,114.33
2018-02-20T08:13:56.511Z,113.57
2018-02-20T08:16:24.776Z,117.47
2018-02-20T08:18:53.856Z,114.57
2018-02-20T08:21:22.179Z,112.17
2018-02-20T08:23:50.451Z,103.93
2018-02-20T08:26:18.743Z,103.33
2018-02-20T08:28:47.016Z,103.53
2018-02-20T08:31:15.295Z,107.03
2018-02-20T08:33:43.731Z,104.63
2018-02-20T08:36:12.941Z,109.17
2018-02-20T08:38:41.237Z,108.13
2018-02-20T08:41:09.524Z,110.37
2018-02-20T08:43:37.799Z,105.23
2018-02-20T08:46:06.074Z,101.43
2018-02-20T08:48:34.356Z,98.27
2018-02-20T08:51:02.626Z,83.97
2018-02-20T08:53:30.870Z,89.17
2018-02-20T08:55:59.897Z,80.37
2018-02-20T08:58:28.175Z,84.37
2018-02-20T09:00:56.438Z,84.77
2018-02-20T09:03:24.679Z,82.30
2018-02-20T09:05:53.731Z,83.23
2018-02-20T09:08:22.242Z,78.87
2018-02-20T09:10:50.594Z,86.60
2018-02-20T09:13:18.847Z,74.87
2018-02-20T09:15:47.337Z,75.67
2018-02-20T09:18:15.610Z,78.17
2018-02-20T09:20:43.888Z,82.27
2018-02-20T09:23:12.269Z,76.97
2018-02-20T09:25:40.542Z,80.53
2018-02-20T09:28:08.795Z,75.83
2018-02-20T09:30:37.069Z,77.63
2018-02-20T09:33:05.487Z,78.03
2018-02-20T09:35:33.779Z,77.50
2018-02-20T09:38:02.110Z,80.33
2018-02-20T09:40:30.380Z,73.73
2018-02-20T09:42:58.648Z,82.37
2018-02-20T09:45:26.950Z,73.73
2018-02-20T09:47:55.338Z,78.23
2018-02-20T09:50:23.653Z,73.50
2018-02-20T09:52:51.974Z,72.83
2018-02-20T09:55:20.286Z,74.40
2018-02-20T09:57:49.336Z,72.30
2018-02-20T10:00:17.609Z,75.40
2018-02-20T10:02:45.866Z,70.27
2018-02-20T10:05:14.133Z,75.57
2018-02-20T10:07:42.691Z,75.30
2018-02-20T10:10:11.726Z,77.00
2018-02-20T10:12:40.025Z,66.40
2018-02-20T10:15:08.384Z,68.13
2018-02-20T10:17:36.655Z,72.17
2018-02-20T10:20:04.923Z,72.13
2018-02-20T10:22:33.225Z,67.03
2018-02-20T10:25:01.470Z,74.00
2018-02-20T10:27:29.718Z,73.87
2018-02-20T10:29:58.068Z,69.17
2018-02-20T10:32:26.328Z,67.13
2018-02-20T10:34:54.646Z,68.63
2018-02-20T10:37:22.907Z,65.67
2018-02-20T10:39:51.946Z,71.20
2018-02-20T10:42:20.356Z,66.60
2018-02-20T10:44:49.423Z,66.70
2018-02-20T10:47:17.694Z,64.57
2018-02-20T10:49:45.959Z,67.87
2018-02-20T10:52:14.217Z,66.50
2018-02-20T10:54:43.334Z,65.77
2018-02-20T10:57:11.648Z,63.87
2018-02-20T10:59:40.032Z,58.97
2018-02-20T11:02:08.291Z,63.53
2018-02-20T11:04:36.659Z,63.50
2018-02-20T11:07:04.894Z,67.67
2018-02-20T11:09:33.191Z,60.73
2018-02-20T11:12:01.543Z,60.77
2018-02-20T11:14:29.826Z,59.33
2018-02-20T11:16:58.844Z,65.33
2018-02-20T11:19:27.095Z,59.80
2018-02-20T11:21:56.118Z,56.97
2018-02-20T11:24:24.472Z,56.87
2018-02-20T11:26:52.871Z,62.80
2018-02-20T11:29:21.127Z,63.67
2018-02-20T11:31:49.518Z,59.93
2018-02-20T11:34:17.759Z,59.53
2018-02-20T11:36:46.058Z,55.83
2018-02-20T11:39:14.299Z,56.57
2018-02-20T11:41:42.579Z,61.17
2018-02-20T11:44:10.847Z,58.47
2018-02-20T11:46:39.911Z,57.10
2018-02-20T11:49:08.238Z,56.50
2018-02-20T11:51:36.420Z,58.00
2018-02-20T11:54:04.670Z,52.00
2018-02-20T11:56:32.956Z,51.17
2018-02-20T11:59:01.229Z,49.80
2018-02-20T12:01:29.486Z,57.40
2018-02-20T12:03:58.651Z,52.47
2018-02-20T12:06:26.910Z,53.13
2018-02-20T12:08:55.175Z,53.97
2018-02-20T12:11:23.443Z,55.57
2018-02-20T12:13:51.766Z,57.43
2018-02-20T12:16:20.036Z,54.23
2018-02-20T12:18:48.291Z,56.37
2018-02-20T12:21:16.675Z,60.37
2018-02-20T12:23:44.957Z,59.87
2018-02-20T12:26:13.216Z,61.30
2018-02-20T12:28:41.508Z,60.77
2018-02-20T12:31:09.777Z,56.33
2018-02-20T12:33:38.042Z,59.13
2018-02-20T12:36:06.298Z,57.00
2018-02-20T12:38:34.648Z,56.43
2018-02-20T12:41:02.889Z,61.07
2018-02-20T12:43:31.147Z,61.63
2018-02-20T12:45:59.747Z,52.83
2018-02-20T12:48:28.570Z,57.80
2018-02-20T12:50:57.257Z,58.73
2018-02-20T12:53:26.530Z,63.93
2018-02-20T12:55:54.821Z,64.03
2018-02-20T12:58:23.540Z,59.67
2018-02-20T13:00:52.096Z,60.33
2018-02-20T13:03:20.440Z,58.47
2018-02-20T13:05:48.751Z,57.07
2018-02-20T13:08:17.200Z,60.30
2018-02-20T13:10:45.474Z,61.37
2018-02-20T13:13:13.920Z,58.30
2018-02-20T13:15:42.366Z,53.03
2018-02-20T13:18:10.787Z,51.10
2018-02-20T13:20:39.895Z,50.30
2018-02-20T13:23:08.156Z,51.83
2018-02-20T13:25:36.579Z,46.57
2018-02-20T13:28:04.925Z,44.33
2018-02-20T13:30:33.208Z,38.50
2018-02-20T13:33:02.259Z,44.13
2018-02-20T13:35:30.543Z,49.13
2018-02-20T13:37:58.791Z,44.23
2018-02-20T13:40:27.128Z,44.80
2018-02-20T13:42:56.171Z,41.57
2018-02-20T13:45:24.430Z,42.63
2018-02-20T13:47:52.920Z,44.97
2018-02-20T13:50:21.194Z,43.30
2018-02-20T13:52:49.862Z,44.93
2018-02-20T13:55:24.202Z,47.43
2018-02-20T13:57:52.477Z,45.20
2018-02-20T14:00:20.749Z,38.93
2018-02-20T14:02:49.067Z,39.87
2018-02-20T14:05:17.327Z,38.53
2018-02-20T14:07:45.608Z,41.43
2018-02-20T14:10:13.937Z,42.43
2018-02-20T14:12:42.334Z,41.70
2018-02-20T14:15:10.762Z,41.70
2018-02-20T14:17:39.034Z,41.47
2018-02-20T14:20:07.456Z,32.97
2018-02-20T14:22:35.878Z,37.10
2018-02-20T14:25:04.392Z,32.17
2018-02-20T14:27:32.901Z,32.80
2018-02-20T14:30:01.230Z,35.10
2018-02-20T14:32:30.752Z,39.03
2018-02-20T14:34:59.174Z,35.70
2018-02-20T14:37:27.450Z,34.50
2018-02-20T14:39:55.720Z,34.33
2018-02-20T14:42:23.963Z,35.87
2018-02-20T14:44:52.259Z,38.57
2018-02-20T14:47:20.507Z,41.40
2018-02-20T14:49:48.779Z,37.20
2018-02-20T14:52:17.007Z,37.50
2018-02-20T14:54:45.270Z,40.43
2018-02-20T14:57:13.594Z,37.43
2018-02-20T14:59:43.832Z,36.37
2018-02-20T15:02:12.107Z,34.03
2018-02-20T15:04:40.448Z,39.67
2018-02-20T15:07:08.716Z,35.63
2018-02-20T15:09:36.971Z,39.80
2018-02-20T15:12:05.270Z,42.10
2018-02-20T15:14:33.510Z,40.93
2018-02-20T15:17:01.790Z,41.40
2018-02-20T15:19:30.018Z,38.40
2018-02-20T15:21:59.055Z,33.87
2018-02-20T15:24:27.307Z,30.90
2018-02-20T15:26:55.583Z,32.57
2018-02-20T15:29:23.873Z,32.77
2018-02-20T15:31:52.146Z,35.07
2018-02-20T15:34:20.442Z,36.13
2018-02-20T15:36:48.963Z,37.73
2018-02-20T15:39:18.088Z,40.30
2018-02-20T15:41:46.353Z,41.30
2018-02-20T15:44:14.595Z,41.90
2018-02-20T15:46:43.615Z,44.37
2018-02-20T15:49:11.957Z,47.30
2018-02-20T15:51:40.500Z,47.80
2018-02-20T15:54:08.739Z,42.90
2018-02-20T15:56:37.152Z,47.17
2018-02-20T15:59:05.364Z,45.20
2018-02-20T16:01:34.412Z,40.70
2018-02-20T16:04:02.834Z,38.33
2018-02-20T16:06:31.083Z,42.30
2018-02-20T16:08:59.469Z,44.97
2018-02-20T16:11:27.792Z,46.87
2018-02-20T16:13:56.084Z,40.23
2018-02-20T16:16:24.329Z,44.63
2018-02-20T16:18:52.660Z,42.20
2018-02-20T16:21:20.876Z,43.13
2018-02-20T16:23:49.977Z,38.93
2018-02-20T16:26:18.992Z,42.07
2018-02-20T16:28:47.537Z,44.47
2018-02-20T16:31:15.819Z,43.87
2018-02-20T16:33:44.771Z,44.43
2018-02-20T16:36:13.054Z,41.37
2018-02-20T16:38:41.357Z,42.30
2018-02-20T16:41:10.439Z,44.67
2018-02-20T16:43:39.604Z,45.07
2018-02-20T16:46:07.892Z,42.07
2018-02-20T16:48:36.155Z,39.23
2018-02-20T16:51:04.683Z,41.77
2018-02-20T16:53:33.708Z,44.17
2018-02-20T16:56:01.981Z,40.37
2018-02-20T16:58:30.251Z,39.30
2018-02-20T17:00:58.588Z,39.63
2018-02-20T17:03:27.623Z,44.00
2018-02-20T17:05:55.859Z,47.03
2018-02-20T17:08:24.903Z,39.07
2018-02-20T17:10:53.204Z,40.87
2018-02-20T17:13:21.452Z,44.83
2018-02-20T17:15:49.739Z,44.43
2018-02-20T17:18:18.008Z,40.73
2018-02-20T17:20:46.323Z,43.90
2018-02-20T17:23:14.635Z,42.30
2018-02-20T17:25:42.886Z,41.77
2018-02-20T17:28:11.935Z,47.63
2018-02-20T17:30:40.202Z,42.47
2018-02-20T17:33:08.662Z,44.00
2018-02-20T17:35:36.912Z,44.23
2018-02-20T17:38:05.946Z,43.97
2018-02-20T17:40:34.748Z,47.83
2018-02-20T17:43:03.123Z,52.07
2018-02-20T17:45:31.380Z,44.20
2018-02-20T17:47:59.687Z,50.03
2018-02-20T17:50:28.022Z,46.57
2018-02-20T17:52:56.394Z,48.23
2018-02-20T17:55:24.666Z,42.07
2018-02-20T17:57:52.899Z,48.97
2018-02-20T18:00:21.160Z,45.87
2018-02-20T18:02:49.461Z,49.37
2018-02-20T18:05:17.723Z,53.20
2018-02-20T18:07:46.872Z,50.27
2018-02-20T18:10:15.228Z,51.23
2018-02-20T18:12:43.604Z,47.67
2018-02-20T18:15:11.886Z,49.97
2018-02-20T18:17:40.182Z,49.73
2018-02-20T18:20:08.508Z,55.27
2018-02-20T18:22:36.761Z,50.00
2018-02-20T18:25:05.009Z,52.97
2018-02-20T18:27:33.362Z,50.93
2018-02-20T18:30:02.416Z,50.03
2018-02-20T18:32:30.680Z,52.17
2018-02-20T18:34:58.965Z,52.87
2018-02-20T18:37:27.238Z,50.87
2018-02-20T18:39:55.610Z,52.23
2018-02-20T18:42:23.983Z,56.50
2018-02-20T18:44:52.323Z,48.17
2018-02-20T18:47:20.711Z,54.63
2018-02-20T18:49:48.971Z,50.13
2018-02-20T18:52:17.239Z,51.73
2018-02-20T18:54:45.513Z,52.10
2018-02-20T18:57:13.771Z,54.10
2018-02-20T18:59:42.039Z,50.97
2018-02-20T19:02:11.069Z,58.77
2018-02-20T19:04:39.368Z,49.87
2018-02-20T19:07:07.692Z,53.80
2018-02-20T19:09:35.951Z,50.97
2018-02-20T19:12:05.024Z,50.77
2018-02-20T19:14:33.327Z,51.30
2018-02-20T19:17:02.383Z,56.70
2018-02-20T19:19:30.680Z,52.90
2018-02-20T19:21:59.717Z,60.27
2018-02-20T19:24:28.015Z,53.00
2018-02-20T19:26:56.260Z,52.60
2018-02-20T19:29:24.516Z,54.07
2018-02-20T19:31:53.692Z,55.67
2018-02-20T19:34:23.475Z,57.77
2018-02-20T19:36:51.753Z,55.20
2018-02-20T19:39:19.997Z,58.10
2018-02-20T19:41:48.274Z,53.13
2018-02-20T19:44:16.584Z,60.60
2018-02-20T19:46:44.943Z,56.87
2018-02-20T19:49:13.263Z,55.20
2018-02-20T19:51:41.522Z,58.57
2018-02-20T19:54:09.802Z,60.27
2018-02-20T19:56:38.060Z,63.47
2018-02-20T19:59:06.365Z,60.87
2018-02-20T20:01:34.720Z,60.40
2018-02-20T20:04:03.012Z,57.27
2018-02-20T20:06:31.262Z,64.27
2018-02-20T20:08:59.579Z,64.53
2018-02-20T20:11:27.907Z,69.93
2018-02-20T20:13:56.172Z,66.80
2018-02-20T20:16:24.428Z,64.27
2018-02-20T20:18:52.713Z,63.37
2018-02-20T20:21:20.988Z,68.13
2018-02-20T20:23:49.263Z,63.03
2018-02-20T20:26:17.538Z,71.43
2018-02-20T20:28:45.863Z,67.73
2018-02-20T20:31:14.342Z,67.43
2018-02-20T20:33:43.391Z,67.77
2018-02-20T20:36:11.710Z,66.00
2018-02-20T20:38:39.973Z,74.43
2018-02-20T20:41:08.257Z,70.53
2018-02-20T20:43:36.528Z,72.33
2018-02-20T20:46:04.820Z,73.10
2018-02-20T20:48:33.911Z,71.73
2018-02-20T20:51:02.934Z,75.27
2018-02-20T20:53:31.276Z,71.47
2018-02-20T20:56:00.318Z,67.83
2018-02-20T20:58:28.628Z,72.37
2018-02-20T21:00:56.895Z,79.33
2018-02-20T21:03:25.172Z,72.10
2018-02-20T21:05:53.473Z,74.87
2018-02-20T21:08:22.541Z,74.43
2018-02-20T21:10:50.835Z,73.40
2018-02-20T21:13:19.932Z,74.23
2018-02-20T21:15:48.203Z,77.23
2018-02-20T21:18:16.617Z,79.20
2018-02-20T21:20:45.069Z,80.27
2018-02-20T21:23:13.387Z,77.53
2018-02-20T21:25:41.648Z,73.37
2018-02-20T21:28:09.997Z,77.97
2018-02-20T21:30:38.240Z,78.70
2018-02-20T21:33:06.523Z,79.47
2018-02-20T21:35:35.326Z,77.40
2018-02-20T21:38:03.638Z,76.23
2018-02-20T21:40:31.908Z,76.03
2018-02-20T21:43:00.202Z,78.30
2018-02-20T21:45:28.523Z,77.50
2018-02-20T21:47:56.841Z,76.77
2018-02-20T21:50:25.128Z,74.00
2018-02-20T21:52:54.401Z,77.03
2018-02-20T21:55:22.675Z,77.00
2018-02-20T21:57:51.743Z,78.73
2018-02-20T22:00:19.984Z,76.43
2018-02-20T22:02:48.267Z,78.73
2018-02-20T22:05:16.503Z,79.87
2018-02-20T22:07:45.011Z,78.10
2018-02-20T22:10:13.297Z,76.50
2018-02-20T22:12:41.570Z,81.00
2018-02-20T22:15:09.817Z,83.03
2018-02-20T22:17:38.087Z,84.80
2018-02-20T22:20:06.336Z,80.03
2018-02-20T22:22:34.647Z,81.30
2018-02-20T22:25:03.027Z,91.53
2018-02-20T22:27:31.295Z,82.80
2018-02-20T22:29:59.625Z,81.77
2018-02-20T22:32:27.877Z,82.73
2018-02-20T22:34:56.103Z,83.30
2018-02-20T22:37:24.359Z,91.30
2018-02-20T22:39:52.667Z,87.63
2018-02-20T22:42:20.900Z,90.60
2018-02-20T22:44:49.924Z,81.57
2018-02-20T22:47:18.262Z,85.00
2018-02-20T22:49:46.535Z,84.07
2018-02-20T22:52:14.912Z,87.83
2018-02-20T22:54:43.187Z,87.43
2018-02-20T22:57:12.248Z,91.50
2018-02-20T22:59:40.515Z,84.37
2018-02-20T23:02:08.778Z,93.50
2018-02-20T23:04:37.061Z,90.70
2018-02-20T23:07:05.318Z,88.20
2018-02-20T23:09:33.667Z,90.10
2018-02-20T23:12:01.932Z,92.50
2018-02-20T23:14:30.931Z,92.43
2018-02-20T23:17:00.064Z,98.80
2018-02-20T23:19:28.354Z,95.63
2018-02-20T23:21:56.599Z,93.53
2018-02-20T23:24:24.855Z,104.27
2018-02-20T23:26:53.919Z,96.00
2018-02-20T23:29:22.971Z,94.43
2018-02-20T23:31:51.247Z,103.03
2018-02-20T23:34:19.515Z,100.47
2018-02-20T23:36:48.010Z,101.80
2018-02-20T23:39:16.269Z,92.40
2018-02-20T23:41:44.554Z,95.33
2018-02-20T23:44:12.799Z,96.13
2018-02-20T23:46:41.116Z,88.83
2018-02-20T23:49:09.367Z,104.63
2018-02-20T23:51:37.643Z,96.57
2018-02-20T23:54:05.934Z,105.83
2018-02-20T23:56:34.223Z,96.30
2018-02-20T23:59:02.491Z,101.60
